Time;durP1;ratioP1;P1;durP2;ratioP2;P2;SDS_P1;SDS_P2;PMS_P1;PMS_P2;Temp;Humidity;BMP_temperature;BMP_pressure;BME280_temperature;BME280_humidity;BME280_pressure;Samples;Min_cycle;Max_cycle;Signal;HPM_P1;HPM_P2
2022/10/25 00:01:31;;;;;;;;;;;17.00;72.30;;;;;;5082611;28;19916;-82
2022/10/25 00:03:57;;;;;;;;;;;17.00;72.30;;;;;;5088690;28;19912;-81
2022/10/25 00:06:22;;;;;;;;;;;17.00;72.40;;;;;;5088639;28;19912;-81
2022/10/25 00:08:48;;;;;;;;;;;17.00;72.40;;;;;;5096419;28;20019;-81
2022/10/25 00:11:21;;;;;;;;;;;17.00;72.30;;;;;;5091988;28;19912;-81
2022/10/25 00:13:48;;;;;;;;;;;17.00;72.40;;;;;;5096268;28;19916;-81
2022/10/25 00:16:15;;;;;;;;;;;17.00;72.40;;;;;;5080667;28;20323;-81
2022/10/25 00:18:41;;;;;;;;;;;17.00;72.40;;;;;;5077512;28;20123;-81
2022/10/25 00:21:06;;;;;;;;;;;17.00;72.40;;;;;;5079752;28;20011;-81
2022/10/25 00:23:32;;;;;;;;;;;17.00;72.40;;;;;;5095245;28;19999;-82
2022/10/25 00:26:05;;;;;;;;;;;17.00;72.40;;;;;;5093540;28;19962;-81
2022/10/25 00:28:30;;;;;;;;;;;17.00;72.40;;;;;;5099936;28;20007;-80
2022/10/25 00:31:04;;;;;;;;;;;17.00;72.40;;;;;;5080724;28;20011;-80
2022/10/25 00:33:30;;;;;;;;;;;17.00;72.40;;;;;;5090058;28;19916;-81
2022/10/25 00:35:55;;;;;;;;;;;16.90;72.40;;;;;;5086975;28;20353;-81
2022/10/25 00:38:21;;;;;;;;;;;17.00;72.40;;;;;;5106782;27;20011;-81
2022/10/25 00:40:47;;;;;;;;;;;17.00;72.40;;;;;;5067254;28;19919;-81
2022/10/25 00:43:30;;;;;;;;;;;17.00;72.40;;;;;;5087390;28;20544;-81
2022/10/25 00:45:55;;;;;;;;;;;17.00;72.50;;;;;;5090605;28;20376;-81
2022/10/25 00:48:21;;;;;;;;;;;17.00;72.50;;;;;;5092127;28;19911;-81
2022/10/25 00:50:48;;;;;;;;;;;16.90;72.40;;;;;;5070130;28;19916;-81
2022/10/25 00:53:17;;;;;;;;;;;17.00;72.50;;;;;;5112849;27;19908;-81
2022/10/25 00:55:45;;;;;;;;;;;17.00;72.50;;;;;;5114491;27;19919;-82
2022/10/25 00:58:16;;;;;;;;;;;16.90;72.50;;;;;;5097649;28;19974;-81
2022/10/25 01:00:44;;;;;;;;;;;17.00;72.50;;;;;;5088892;28;19916;-82
2022/10/25 01:03:09;;;;;;;;;;;17.00;72.50;;;;;;5095813;28;19908;-81
2022/10/25 01:05:36;;;;;;;;;;;16.90;72.50;;;;;;5101069;28;20292;-81
2022/10/25 01:08:02;;;;;;;;;;;16.90;72.50;;;;;;5082566;28;19935;-80
2022/10/25 01:10:28;;;;;;;;;;;16.90;72.50;;;;;;5095581;28;20437;-81
2022/10/25 01:12:54;;;;;;;;;;;17.00;72.50;;;;;;5113700;27;19956;-80
2022/10/25 01:15:21;;;;;;;;;;;17.00;72.60;;;;;;5089873;28;19938;-80
2022/10/25 01:18:13;;;;;;;;;;;17.00;72.60;;;;;;5095755;28;19918;-80
2022/10/25 01:21:05;;;;;;;;;;;16.90;72.50;;;;;;5084497;28;20365;-81
2022/10/25 01:23:31;;;;;;;;;;;16.90;72.50;;;;;;5090576;28;19916;-81
2022/10/25 01:26:10;;;;;;;;;;;16.90;72.50;;;;;;5082115;28;20360;-81
2022/10/25 01:28:51;;;;;;;;;;;16.90;72.50;;;;;;5112667;27;19920;-80
2022/10/25 01:31:29;;;;;;;;;;;16.90;72.50;;;;;;5098572;28;19919;-81
2022/10/25 01:34:04;;;;;;;;;;;16.90;72.50;;;;;;5095254;28;19916;-81
2022/10/25 01:36:42;;;;;;;;;;;16.90;72.60;;;;;;5074318;28;19938;-81
2022/10/25 01:39:08;;;;;;;;;;;16.90;72.60;;;;;;5091959;28;19912;-80
2022/10/25 01:41:44;;;;;;;;;;;16.90;72.50;;;;;;5086076;28;19915;-81
2022/10/25 01:44:22;;;;;;;;;;;16.90;72.60;;;;;;5106512;28;19920;-81
2022/10/25 01:46:48;;;;;;;;;;;16.90;72.60;;;;;;5092209;28;20003;-80
2022/10/25 01:49:17;;;;;;;;;;;16.90;72.60;;;;;;5096209;28;20367;-81
2022/10/25 01:51:42;;;;;;;;;;;16.90;72.60;;;;;;5101045;28;20011;-81
2022/10/25 01:54:19;;;;;;;;;;;16.90;72.60;;;;;;5071730;28;20348;-81
2022/10/25 01:56:48;;;;;;;;;;;16.90;72.60;;;;;;5108849;27;20486;-81
2022/10/25 01:59:19;;;;;;;;;;;17.00;72.60;;;;;;5080704;28;20367;-81
2022/10/25 02:01:48;;;;;;;;;;;16.90;72.60;;;;;;5086146;28;20383;-81
2022/10/25 02:04:17;;;;;;;;;;;16.90;72.60;;;;;;5084988;28;19959;-81
2022/10/25 02:06:47;;;;;;;;;;;16.90;72.60;;;;;;5086591;28;19919;-80
2022/10/25 02:09:23;;;;;;;;;;;16.90;72.60;;;;;;5093440;28;19912;-81
2022/10/25 02:11:50;;;;;;;;;;;16.90;72.60;;;;;;5079741;28;19927;-81
2022/10/25 02:14:22;;;;;;;;;;;16.90;72.60;;;;;;5108852;27;19908;-81
2022/10/25 02:16:52;;;;;;;;;;;16.90;72.60;;;;;;5082792;28;19969;-81
2022/10/25 02:19:21;;;;;;;;;;;16.90;72.60;;;;;;5093938;28;19912;-81
2022/10/25 02:21:47;;;;;;;;;;;16.90;72.60;;;;;;5086741;28;20417;-81
2022/10/25 02:24:15;;;;;;;;;;;16.90;72.60;;;;;;5079866;28;19970;-80
2022/10/25 02:26:42;;;;;;;;;;;16.90;72.60;;;;;;5095050;28;20402;-81
2022/10/25 02:29:09;;;;;;;;;;;16.90;72.60;;;;;;5087058;28;20003;-81
2022/10/25 02:31:35;;;;;;;;;;;16.90;72.60;;;;;;5093772;28;20135;-81
2022/10/25 02:34:01;;;;;;;;;;;16.90;72.60;;;;;;5098316;28;20428;-81
2022/10/25 02:36:27;;;;;;;;;;;16.90;72.60;;;;;;5097352;28;20007;-81
2022/10/25 02:38:53;;;;;;;;;;;16.90;73.20;;;;;;5077421;28;20006;-80
2022/10/25 02:41:19;;;;;;;;;;;16.90;72.60;;;;;;5102182;28;19920;-81
2022/10/25 02:43:45;;;;;;;;;;;16.90;72.60;;;;;;5095442;28;19920;-80
2022/10/25 02:46:13;;;;;;;;;;;16.90;72.60;;;;;;5104319;28;20272;-80
2022/10/25 02:48:39;;;;;;;;;;;16.90;72.60;;;;;;5083982;28;19915;-81
2022/10/25 02:51:05;;;;;;;;;;;16.90;72.60;;;;;;5077307;28;21802;-81
2022/10/25 02:53:31;;;;;;;;;;;16.90;72.60;;;;;;5095480;28;20411;-80
2022/10/25 02:56:01;;;;;;;;;;;16.90;72.60;;;;;;5097658;28;19912;-80
2022/10/25 02:58:28;;;;;;;;;;;16.90;72.60;;;;;;5087144;28;19920;-81
2022/10/25 03:00:53;;;;;;;;;;;16.90;72.60;;;;;;5081414;28;19927;-81
2022/10/25 03:03:19;;;;;;;;;;;16.90;72.60;;;;;;5093552;28;19912;-81
2022/10/25 03:05:45;;;;;;;;;;;16.90;72.60;;;;;;5084645;28;19924;-81
2022/10/25 03:08:10;;;;;;;;;;;16.90;72.60;;;;;;5065299;28;19920;-80
2022/10/25 03:10:36;;;;;;;;;;;16.90;72.60;;;;;;5106483;28;19969;-80
2022/10/25 03:13:02;;;;;;;;;;;16.90;72.60;;;;;;5099067;28;19916;-81
2022/10/25 03:15:28;;;;;;;;;;;16.90;72.60;;;;;;5097971;28;20279;-80
2022/10/25 03:17:53;;;;;;;;;;;16.90;72.60;;;;;;5104718;28;19982;-81
2022/10/25 03:20:19;;;;;;;;;;;16.90;72.60;;;;;;5081260;28;19959;-80
2022/10/25 03:22:44;;;;;;;;;;;16.90;72.60;;;;;;5095588;28;20321;-81
2022/10/25 03:25:10;;;;;;;;;;;16.90;72.60;;;;;;5095154;28;19963;-80
2022/10/25 03:27:35;;;;;;;;;;;17.00;72.60;;;;;;5082315;28;19924;-80
2022/10/25 03:30:01;;;;;;;;;;;16.90;72.60;;;;;;5086694;28;19923;-81
2022/10/25 03:32:27;;;;;;;;;;;16.90;72.60;;;;;;5102613;28;19991;-82
2022/10/25 03:34:52;;;;;;;;;;;16.90;72.60;;;;;;5102189;28;19923;-81
2022/10/25 03:37:18;;;;;;;;;;;16.90;72.60;;;;;;5075528;28;20050;-80
2022/10/25 03:39:44;;;;;;;;;;;16.90;72.60;;;;;;5089548;28;20007;-81
2022/10/25 03:42:09;;;;;;;;;;;16.90;73.30;;;;;;5092508;28;19916;-80
2022/10/25 03:44:35;;;;;;;;;;;16.90;72.60;;;;;;5077531;28;19924;-81
2022/10/25 03:47:00;;;;;;;;;;;16.90;72.60;;;;;;5082558;28;19980;-81
2022/10/25 03:49:26;;;;;;;;;;;16.90;72.60;;;;;;5087988;28;19916;-80
2022/10/25 03:51:51;;;;;;;;;;;16.90;72.60;;;;;;5088111;28;20018;-81
2022/10/25 03:54:17;;;;;;;;;;;16.90;72.60;;;;;;5095661;28;19918;-81
2022/10/25 03:56:43;;;;;;;;;;;16.90;72.70;;;;;;5103004;28;19923;-81
2022/10/25 03:59:08;;;;;;;;;;;16.90;72.70;;;;;;5096711;28;19995;-81
2022/10/25 04:01:34;;;;;;;;;;;16.90;72.70;;;;;;5103948;28;19920;-81
2022/10/25 04:03:59;;;;;;;;;;;16.90;72.70;;;;;;5092586;28;19916;-81
2022/10/25 04:06:25;;;;;;;;;;;16.90;72.70;;;;;;5103490;28;19915;-81
2022/10/25 04:08:51;;;;;;;;;;;16.90;72.70;;;;;;5097495;28;19928;-79
2022/10/25 04:11:16;;;;;;;;;;;16.90;72.70;;;;;;5088913;28;19912;-82
2022/10/25 04:13:42;;;;;;;;;;;16.90;72.70;;;;;;5082620;28;19923;-83
2022/10/25 04:16:08;;;;;;;;;;;16.90;72.70;;;;;;5084306;28;19916;-82
2022/10/25 04:18:33;;;;;;;;;;;16.90;72.70;;;;;;5094243;28;19912;-82
2022/10/25 04:20:59;;;;;;;;;;;16.90;72.70;;;;;;5080843;28;19965;-82
2022/10/25 04:23:25;;;;;;;;;;;16.90;72.70;;;;;;5079849;28;20002;-80
2022/10/25 04:25:55;;;;;;;;;;;16.90;72.70;;;;;;5103001;28;19924;-79
2022/10/25 04:28:22;;;;;;;;;;;16.90;72.70;;;;;;5084920;28;20392;-80
2022/10/25 04:30:47;;;;;;;;;;;16.90;72.70;;;;;;5083783;28;19957;-80
2022/10/25 04:33:13;;;;;;;;;;;16.90;72.70;;;;;;5086519;28;19916;-80
2022/10/25 04:35:39;;;;;;;;;;;16.90;72.70;;;;;;5087547;28;19955;-82
2022/10/25 04:38:04;;;;;;;;;;;16.90;72.70;;;;;;5094672;28;20019;-80
2022/10/25 04:40:30;;;;;;;;;;;16.90;72.70;;;;;;5113385;27;20002;-79
2022/10/25 04:42:56;;;;;;;;;;;16.90;72.70;;;;;;5097269;28;19916;-82
2022/10/25 04:45:21;;;;;;;;;;;16.90;72.70;;;;;;5105950;27;20384;-80
2022/10/25 04:47:47;;;;;;;;;;;16.90;72.70;;;;;;5088736;28;19917;-80
2022/10/25 04:50:13;;;;;;;;;;;16.90;72.70;;;;;;5095903;28;19912;-80
2022/10/25 04:52:38;;;;;;;;;;;16.90;72.70;;;;;;5094403;28;19916;-81
2022/10/25 04:55:04;;;;;;;;;;;16.90;72.70;;;;;;5075395;28;19927;-81
2022/10/25 04:57:30;;;;;;;;;;;16.90;72.70;;;;;;5092619;28;19972;-81
2022/10/25 04:59:56;;;;;;;;;;;16.90;72.70;;;;;;5075421;28;19913;-82
2022/10/25 05:02:22;;;;;;;;;;;16.90;72.70;;;;;;5106080;28;20007;-80
2022/10/25 05:04:48;;;;;;;;;;;16.90;72.70;;;;;;5095122;28;21167;-79
2022/10/25 05:07:17;;;;;;;;;;;16.90;72.70;;;;;;5095029;28;19927;-82
2022/10/25 05:09:43;;;;;;;;;;;16.90;73.40;;;;;;5087530;28;19999;-82
2022/10/25 05:12:08;;;;;;;;;;;16.90;72.70;;;;;;5091161;28;20006;-80
2022/10/25 05:14:34;;;;;;;;;;;16.90;72.70;;;;;;5068624;28;19966;-81
2022/10/25 05:17:00;;;;;;;;;;;16.90;72.70;;;;;;5101334;28;19965;-80
2022/10/25 05:19:25;;;;;;;;;;;16.90;72.70;;;;;;5085663;28;19923;-81
2022/10/25 05:21:51;;;;;;;;;;;16.90;72.70;;;;;;5076717;28;19920;-81
2022/10/25 05:24:16;;;;;;;;;;;16.90;72.70;;;;;;5088745;28;19928;-81
2022/10/25 05:26:42;;;;;;;;;;;16.90;72.70;;;;;;5096950;28;19908;-81
2022/10/25 05:29:09;;;;;;;;;;;16.90;72.70;;;;;;5085502;28;19927;-81
2022/10/25 05:31:37;;;;;;;;;;;16.90;72.70;;;;;;5080956;28;19923;-82
2022/10/25 05:34:03;;;;;;;;;;;16.90;72.70;;;;;;5099278;28;19911;-81
2022/10/25 05:36:28;;;;;;;;;;;16.90;72.70;;;;;;5108149;28;19953;-81
2022/10/25 05:38:54;;;;;;;;;;;16.90;72.70;;;;;;5092250;28;19924;-81
2022/10/25 05:41:20;;;;;;;;;;;16.90;72.70;;;;;;5115624;27;19908;-81
2022/10/25 05:43:46;;;;;;;;;;;16.90;72.70;;;;;;5083955;28;19912;-81
2022/10/25 05:46:13;;;;;;;;;;;16.90;72.70;;;;;;5085328;28;19916;-81
2022/10/25 05:48:39;;;;;;;;;;;16.90;72.70;;;;;;5097464;28;19919;-81
2022/10/25 05:51:18;;;;;;;;;;;16.90;72.70;;;;;;5088798;28;19986;-81
2022/10/25 05:53:45;;;;;;;;;;;16.90;72.70;;;;;;5093635;28;20280;-82
2022/10/25 05:56:11;;;;;;;;;;;16.90;72.70;;;;;;5096784;28;19908;-81
2022/10/25 05:58:37;;;;;;;;;;;16.90;72.70;;;;;;5093087;28;20352;-81
2022/10/25 06:01:02;;;;;;;;;;;16.90;72.80;;;;;;5088895;28;19961;-82
2022/10/25 06:03:28;;;;;;;;;;;16.90;72.70;;;;;;5101782;28;19961;-81
2022/10/25 06:05:58;;;;;;;;;;;16.90;72.80;;;;;;5104195;28;20277;-81
2022/10/25 06:08:23;;;;;;;;;;;16.90;72.80;;;;;;5098620;28;19916;-81
2022/10/25 06:10:49;;;;;;;;;;;16.90;72.70;;;;;;5080690;28;19972;-82
2022/10/25 06:13:15;;;;;;;;;;;16.90;72.70;;;;;;5074165;28;19916;-82
2022/10/25 06:15:40;;;;;;;;;;;16.90;72.70;;;;;;5097773;28;19938;-81
2022/10/25 06:18:06;;;;;;;;;;;16.90;72.70;;;;;;5071034;28;19923;-83
2022/10/25 06:20:31;;;;;;;;;;;16.90;72.70;;;;;;5072387;28;19969;-82
2022/10/25 06:22:57;;;;;;;;;;;16.90;72.70;;;;;;5078899;28;20007;-82
2022/10/25 06:25:23;;;;;;;;;;;16.90;72.80;;;;;;5081426;28;20561;-82
2022/10/25 06:27:48;;;;;;;;;;;16.90;72.80;;;;;;5096575;28;20441;-81
2022/10/25 06:30:14;;;;;;;;;;;16.90;72.70;;;;;;5081608;28;19916;-81
2022/10/25 06:32:40;;;;;;;;;;;16.90;72.80;;;;;;5088421;28;20342;-81
2022/10/25 06:35:05;;;;;;;;;;;16.90;72.80;;;;;;5077865;28;20383;-83
2022/10/25 06:37:31;;;;;;;;;;;16.90;72.70;;;;;;5081834;28;19966;-81
2022/10/25 06:39:57;;;;;;;;;;;16.90;72.70;;;;;;5093405;28;19923;-81
2022/10/25 06:42:22;;;;;;;;;;;16.90;72.70;;;;;;5096070;28;19962;-81
2022/10/25 06:44:48;;;;;;;;;;;16.90;72.70;;;;;;5095439;28;19927;-82
2022/10/25 06:47:13;;;;;;;;;;;16.90;72.80;;;;;;5088587;28;20359;-82
2022/10/25 06:49:39;;;;;;;;;;;16.90;72.80;;;;;;5088523;28;19921;-83
2022/10/25 06:52:05;;;;;;;;;;;16.90;72.80;;;;;;5094571;28;20276;-81
2022/10/25 06:54:30;;;;;;;;;;;16.90;72.80;;;;;;5095268;28;19916;-83
2022/10/25 06:56:56;;;;;;;;;;;16.90;72.80;;;;;;5088009;28;20012;-83
2022/10/25 06:59:22;;;;;;;;;;;16.90;72.80;;;;;;5100524;28;19919;-82
2022/10/25 07:01:48;;;;;;;;;;;16.90;72.80;;;;;;5102223;28;19917;-83
2022/10/25 07:04:14;;;;;;;;;;;16.90;72.80;;;;;;5087200;28;19968;-83
2022/10/25 07:06:40;;;;;;;;;;;16.90;72.80;;;;;;5089774;28;19908;-82
2022/10/25 07:09:08;;;;;;;;;;;16.90;72.70;;;;;;5078747;28;19916;-82
2022/10/25 07:11:34;;;;;;;;;;;16.90;72.80;;;;;;5102812;28;20349;-84
2022/10/25 07:14:00;;;;;;;;;;;16.90;72.80;;;;;;5101551;28;19961;-82
2022/10/25 07:16:26;;;;;;;;;;;16.90;72.80;;;;;;5091336;28;19908;-82
2022/10/25 07:18:58;;;;;;;;;;;16.90;72.80;;;;;;5079703;28;19916;-83
2022/10/25 07:21:23;;;;;;;;;;;16.90;72.80;;;;;;5084060;28;19919;-82
2022/10/25 07:23:49;;;;;;;;;;;16.90;72.80;;;;;;5083950;28;19991;-82
2022/10/25 07:26:15;;;;;;;;;;;16.90;72.80;;;;;;5111531;27;19916;-82
2022/10/25 07:28:42;;;;;;;;;;;16.90;72.80;;;;;;5087342;28;20344;-83
2022/10/25 07:31:10;;;;;;;;;;;16.90;72.80;;;;;;5090670;28;20007;-82
2022/10/25 07:33:36;;;;;;;;;;;16.90;72.80;;;;;;5105092;28;19952;-82
2022/10/25 07:36:02;;;;;;;;;;;16.90;72.80;;;;;;5089895;28;19920;-82
2022/10/25 07:38:27;;;;;;;;;;;16.90;72.80;;;;;;5098508;28;20011;-82
2022/10/25 07:40:59;;;;;;;;;;;16.90;72.80;;;;;;5068589;28;19920;-82
2022/10/25 07:43:25;;;;;;;;;;;16.90;72.80;;;;;;5093326;28;19955;-82
2022/10/25 07:45:51;;;;;;;;;;;16.90;72.80;;;;;;5091528;28;19924;-82
2022/10/25 07:48:17;;;;;;;;;;;16.90;72.80;;;;;;5099074;28;19931;-82
2022/10/25 07:50:43;;;;;;;;;;;16.90;72.80;;;;;;5097346;28;19939;-84
2022/10/25 07:53:08;;;;;;;;;;;16.90;72.80;;;;;;5097389;28;19920;-83
2022/10/25 07:55:34;;;;;;;;;;;16.90;72.80;;;;;;5085085;28;20018;-82
2022/10/25 07:58:00;;;;;;;;;;;16.90;72.80;;;;;;5088559;28;20523;-83
2022/10/25 08:00:26;;;;;;;;;;;16.90;72.80;;;;;;5097940;28;20368;-83
2022/10/25 08:02:52;;;;;;;;;;;16.90;72.80;;;;;;5110234;27;19997;-83
2022/10/25 08:05:18;;;;;;;;;;;16.90;72.80;;;;;;5100028;28;20069;-82
2022/10/25 08:07:43;;;;;;;;;;;16.90;72.80;;;;;;5090426;28;19966;-82
2022/10/25 08:10:09;;;;;;;;;;;16.90;72.80;;;;;;5083175;28;20435;-83
2022/10/25 08:12:34;;;;;;;;;;;16.90;72.80;;;;;;5084647;28;20322;-82
2022/10/25 08:15:00;;;;;;;;;;;16.90;72.80;;;;;;5094767;28;20011;-81
2022/10/25 08:17:26;;;;;;;;;;;16.90;72.80;;;;;;5102111;28;20360;-81
2022/10/25 08:19:51;;;;;;;;;;;16.90;72.70;;;;;;5102549;28;19916;-81
2022/10/25 08:22:17;;;;;;;;;;;16.90;72.70;;;;;;5088837;28;19916;-81
2022/10/25 08:24:43;;;;;;;;;;;16.90;72.70;;;;;;5100849;28;19971;-82
2022/10/25 08:27:08;;;;;;;;;;;16.90;72.80;;;;;;5094347;28;19939;-82
2022/10/25 08:29:34;;;;;;;;;;;16.90;72.70;;;;;;5081399;28;20011;-82
2022/10/25 08:32:00;;;;;;;;;;;16.90;72.70;;;;;;5102597;28;19951;-81
2022/10/25 08:34:25;;;;;;;;;;;17.00;72.80;;;;;;5086088;28;19925;-81
2022/10/25 08:36:51;;;;;;;;;;;17.00;72.80;;;;;;5109432;28;19918;-81
2022/10/25 08:39:17;;;;;;;;;;;17.00;72.80;;;;;;5084533;28;19964;-81
2022/10/25 08:41:51;;;;;;;;;;;17.00;72.80;;;;;;5105608;28;20006;-81
2022/10/25 08:44:26;;;;;;;;;;;17.00;72.80;;;;;;5082959;28;19916;-81
2022/10/25 08:47:02;;;;;;;;;;;17.00;72.80;;;;;;5104803;28;19912;-81
2022/10/25 08:49:57;;;;;;;;;;;17.00;72.80;;;;;;5086654;28;19927;-81
2022/10/25 08:52:29;;;;;;;;;;;17.10;72.90;;;;;;5039567;28;19913;-81
2022/10/25 08:54:56;;;;;;;;;;;17.00;72.80;;;;;;5097235;28;19916;-81
2022/10/25 08:57:27;;;;;;;;;;;17.10;72.90;;;;;;5083979;28;19912;-81
2022/10/25 08:59:57;;;;;;;;;;;17.00;72.80;;;;;;5091245;28;19916;-82
2022/10/25 09:02:35;;;;;;;;;;;17.10;72.90;;;;;;5091551;28;19912;-81
2022/10/25 09:05:01;;;;;;;;;;;17.10;72.90;;;;;;5106030;28;20410;-82
2022/10/25 09:07:29;;;;;;;;;;;17.10;72.80;;;;;;5094248;28;19936;-83
2022/10/25 09:10:10;;;;;;;;;;;17.10;72.80;;;;;;5096007;28;20011;-82
2022/10/25 09:12:43;;;;;;;;;;;17.10;72.80;;;;;;5094909;28;19974;-81
2022/10/25 09:15:35;;;;;;;;;;;17.10;72.80;;;;;;5088835;28;19962;-81
2022/10/25 09:18:04;;;;;;;;;;;17.10;72.80;;;;;;5098132;27;20003;-82
2022/10/25 09:20:32;;;;;;;;;;;17.10;72.80;;;;;;5096095;28;19957;-82
2022/10/25 09:23:02;;;;;;;;;;;17.10;72.80;;;;;;5097800;28;19912;-82
2022/10/25 09:25:27;;;;;;;;;;;17.10;72.80;;;;;;5103693;28;19920;-82
2022/10/25 09:27:58;;;;;;;;;;;17.10;72.80;;;;;;5107025;28;20257;-82
2022/10/25 09:30:26;;;;;;;;;;;17.20;72.80;;;;;;5088536;28;20002;-83
2022/10/25 09:32:56;;;;;;;;;;;17.20;72.80;;;;;;5105400;28;20442;-82
2022/10/25 09:35:24;;;;;;;;;;;17.20;72.80;;;;;;5069761;28;19908;-81
2022/10/25 09:37:52;;;;;;;;;;;17.20;72.80;;;;;;5097605;28;19908;-83
2022/10/25 09:40:22;;;;;;;;;;;17.20;72.80;;;;;;5094570;28;19912;-83
2022/10/25 09:42:55;;;;;;;;;;;17.20;72.70;;;;;;5091461;28;19957;-83
2022/10/25 09:45:21;;;;;;;;;;;17.30;72.80;;;;;;5103263;28;20065;-82
2022/10/25 09:48:02;;;;;;;;;;;17.30;72.80;;;;;;5086183;28;19908;-82
2022/10/25 09:50:29;;;;;;;;;;;17.30;72.80;;;;;;5094208;28;20426;-82
2022/10/25 09:53:01;;;;;;;;;;;17.30;72.70;;;;;;5090934;28;19912;-82
2022/10/25 09:55:31;;;;;;;;;;;17.30;72.70;;;;;;5097548;28;19908;-82
2022/10/25 09:57:57;;;;;;;;;;;17.30;72.70;;;;;;5091226;28;19959;-81
2022/10/25 10:00:23;;;;;;;;;;;17.40;72.80;;;;;;5081764;28;19947;-82
2022/10/25 10:02:48;;;;;;;;;;;17.40;72.70;;;;;;5101862;28;19934;-82
2022/10/25 10:05:15;;;;;;;;;;;17.40;72.70;;;;;;5095845;28;19923;-82
2022/10/25 10:07:42;;;;;;;;;;;17.40;72.70;;;;;;5106618;28;19923;-81
2022/10/25 10:10:11;;;;;;;;;;;17.40;72.70;;;;;;5102194;28;20360;-82
2022/10/25 10:12:42;;;;;;;;;;;17.40;72.70;;;;;;5097699;28;19919;-82
2022/10/25 10:15:31;;;;;;;;;;;17.50;72.70;;;;;;5064647;28;19912;-83
2022/10/25 10:18:18;;;;;;;;;;;17.50;72.70;;;;;;5070042;28;19927;-81
2022/10/25 10:21:04;;;;;;;;;;;17.50;72.70;;;;;;5101866;28;19948;-82
2022/10/25 10:23:32;;;;;;;;;;;17.50;72.70;;;;;;5102595;28;19919;-82
2022/10/25 10:26:02;;;;;;;;;;;17.50;72.70;;;;;;5073457;28;19939;-81
2022/10/25 10:28:28;;;;;;;;;;;17.50;72.70;;;;;;5095130;28;19920;-82
2022/10/25 10:30:55;;;;;;;;;;;17.60;72.70;;;;;;5076820;28;19916;-82
2022/10/25 10:33:21;;;;;;;;;;;17.60;72.70;;;;;;5096615;28;19920;-82
2022/10/25 10:35:47;;;;;;;;;;;17.60;72.70;;;;;;5081986;28;19912;-82
2022/10/25 10:38:22;;;;;;;;;;;17.60;72.70;;;;;;5090616;28;19923;-82
2022/10/25 10:41:10;;;;;;;;;;;17.60;73.30;;;;;;5095887;28;19973;-82
2022/10/25 10:43:36;;;;;;;;;;;17.60;73.30;;;;;;5081242;28;20011;-81
2022/10/25 10:46:04;;;;;;;;;;;17.70;72.70;;;;;;5087102;28;20014;-83
2022/10/25 10:48:32;;;;;;;;;;;17.60;72.70;;;;;;5094991;28;19952;-82
2022/10/25 10:50:57;;;;;;;;;;;17.70;72.70;;;;;;5073668;28;19908;-82
2022/10/25 10:53:31;;;;;;;;;;;17.70;72.70;;;;;;5091269;28;20005;-81
2022/10/25 10:56:01;;;;;;;;;;;17.70;72.70;;;;;;5107012;28;19974;-82
2022/10/25 10:58:31;;;;;;;;;;;17.70;72.70;;;;;;5090194;28;20281;-81
2022/10/25 11:01:05;;;;;;;;;;;17.80;72.70;;;;;;5078865;28;19998;-82
2022/10/25 11:03:40;;;;;;;;;;;17.80;72.70;;;;;;5086335;28;19985;-82
2022/10/25 11:06:06;;;;;;;;;;;17.80;72.70;;;;;;5091904;28;20403;-83
2022/10/25 11:08:33;;;;;;;;;;;17.80;72.60;;;;;;5074015;28;19916;-82
2022/10/25 11:11:11;;;;;;;;;;;17.90;72.70;;;;;;5093854;28;20326;-82
2022/10/25 11:13:36;;;;;;;;;;;17.90;72.70;;;;;;5089365;28;19954;-83
2022/10/25 11:16:08;;;;;;;;;;;17.90;72.60;;;;;;5096468;28;19935;-81
2022/10/25 11:18:54;;;;;;;;;;;17.90;72.60;;;;;;5104205;28;19916;-84
2022/10/25 11:21:38;;;;;;;;;;;17.90;72.60;;;;;;5093495;28;19912;-83
2022/10/25 11:24:07;;;;;;;;;;;17.90;72.60;;;;;;5104833;28;20326;-82
2022/10/25 11:26:41;;;;;;;;;;;18.00;72.60;;;;;;5083624;28;19922;-82
2022/10/25 11:29:14;;;;;;;;;;;18.00;72.60;;;;;;5082050;28;19973;-82
2022/10/25 11:31:55;;;;;;;;;;;18.00;72.60;;;;;;5095473;28;19999;-82
2022/10/25 11:34:30;;;;;;;;;;;18.10;72.60;;;;;;5083526;28;19938;-82
2022/10/25 11:37:18;;;;;;;;;;;18.10;72.60;;;;;;5068738;28;19920;-82
2022/10/25 11:39:44;;;;;;;;;;;18.10;72.60;;;;;;5096275;28;20008;-81
2022/10/25 11:42:29;;;;;;;;;;;18.20;72.60;;;;;;5080537;28;20366;-83
2022/10/25 11:45:13;;;;;;;;;;;18.20;72.50;;;;;;5098801;28;19969;-83
2022/10/25 11:48:05;;;;;;;;;;;18.20;72.50;;;;;;5085431;28;20042;-82
2022/10/25 11:50:42;;;;;;;;;;;18.20;72.60;;;;;;5105317;28;20002;-83
2022/10/25 11:53:26;;;;;;;;;;;18.20;72.60;;;;;;5093608;28;20003;-83
2022/10/25 11:56:00;;;;;;;;;;;18.30;72.60;;;;;;5087233;28;19916;-82
2022/10/25 11:58:29;;;;;;;;;;;18.30;72.50;;;;;;5094055;28;19965;-82
2022/10/25 12:01:13;;;;;;;;;;;18.30;72.60;;;;;;5090747;28;20356;-82
2022/10/25 12:04:02;;;;;;;;;;;18.30;72.50;;;;;;5098075;28;19916;-83
2022/10/25 12:06:28;;;;;;;;;;;18.30;72.50;;;;;;5096644;28;19931;-83
2022/10/25 12:09:00;;;;;;;;;;;18.30;72.50;;;;;;5108621;28;19916;-82
2022/10/25 12:11:28;;;;;;;;;;;18.30;72.40;;;;;;5103872;28;19912;-83
2022/10/25 12:13:59;;;;;;;;;;;18.30;72.40;;;;;;5112506;27;19942;-82
2022/10/25 12:16:25;;;;;;;;;;;18.40;72.50;;;;;;5082464;28;19965;-82
2022/10/25 12:18:58;;;;;;;;;;;18.40;72.40;;;;;;5080375;28;19913;-83
2022/10/25 12:21:26;;;;;;;;;;;18.40;72.40;;;;;;5102523;28;19919;-83
2022/10/25 12:23:53;;;;;;;;;;;18.40;72.40;;;;;;5082345;28;20324;-83
2022/10/25 12:26:24;;;;;;;;;;;18.40;72.40;;;;;;5105209;28;19974;-82
2022/10/25 12:28:50;;;;;;;;;;;18.50;72.40;;;;;;5098641;28;19920;-83
2022/10/25 12:31:27;;;;;;;;;;;18.40;72.40;;;;;;5078401;28;19917;-83
2022/10/25 12:33:53;;;;;;;;;;;18.50;72.40;;;;;;5099862;28;19991;-83
2022/10/25 12:36:25;;;;;;;;;;;18.50;72.40;;;;;;5102915;28;19999;-84
2022/10/25 12:38:51;;;;;;;;;;;18.50;72.40;;;;;;5102740;28;20007;-83
2022/10/25 12:41:27;;;;;;;;;;;18.50;72.30;;;;;;5092513;28;19995;-83
2022/10/25 12:44:11;;;;;;;;;;;18.50;72.40;;;;;;5092541;28;19962;-82
2022/10/25 12:46:45;;;;;;;;;;;18.50;72.40;;;;;;5091876;28;19920;-83
2022/10/25 12:49:20;;;;;;;;;;;18.50;72.40;;;;;;5086524;28;19916;-83
2022/10/25 12:52:00;;;;;;;;;;;18.50;72.40;;;;;;5081632;28;19912;-84
2022/10/25 12:54:28;;;;;;;;;;;18.60;72.40;;;;;;5097688;28;19916;-82
2022/10/25 12:57:02;;;;;;;;;;;18.60;72.40;;;;;;5100497;28;19912;-83
2022/10/25 12:59:37;;;;;;;;;;;18.60;72.40;;;;;;5094928;28;20162;-83
2022/10/25 13:02:23;;;;;;;;;;;18.60;72.40;;;;;;5098099;28;19989;-83
2022/10/25 13:05:07;;;;;;;;;;;18.70;72.40;;;;;;5062812;28;20289;-83
2022/10/25 13:07:34;;;;;;;;;;;18.60;72.30;;;;;;5086644;28;19912;-83
2022/10/25 13:10:14;;;;;;;;;;;18.70;72.40;;;;;;5103403;28;19943;-83
2022/10/25 13:12:40;;;;;;;;;;;18.70;72.30;;;;;;5105638;28;19923;-83
2022/10/25 13:15:05;;;;;;;;;;;18.70;72.30;;;;;;5109116;28;19908;-83
2022/10/25 13:17:37;;;;;;;;;;;18.70;72.30;;;;;;5074599;28;20277;-83
2022/10/25 13:20:26;;;;;;;;;;;18.70;72.30;;;;;;5088908;28;20077;-82
2022/10/25 13:22:52;;;;;;;;;;;18.70;72.30;;;;;;5077013;28;19965;-82
2022/10/25 13:25:37;;;;;;;;;;;18.80;72.30;;;;;;5094638;28;20326;-83
2022/10/25 13:28:10;;;;;;;;;;;18.80;72.30;;;;;;5100674;28;20352;-83
2022/10/25 13:30:35;;;;;;;;;;;18.80;72.30;;;;;;5088737;28;19919;-83
2022/10/25 13:33:22;;;;;;;;;;;18.80;72.20;;;;;;5081796;28;19915;-82
2022/10/25 13:35:48;;;;;;;;;;;18.90;72.30;;;;;;5093447;28;19969;-83
2022/10/25 13:38:24;;;;;;;;;;;18.90;72.90;;;;;;5085631;28;20306;-82
2022/10/25 13:41:06;;;;;;;;;;;18.90;72.20;;;;;;5104954;28;19920;-83
2022/10/25 13:43:32;;;;;;;;;;;18.90;72.20;;;;;;5097304;28;20348;-84
2022/10/25 13:45:58;;;;;;;;;;;18.90;72.10;;;;;;5074158;28;19923;-82
2022/10/25 13:48:34;;;;;;;;;;;18.90;72.10;;;;;;5079377;28;19952;-83
2022/10/25 13:51:09;;;;;;;;;;;18.90;72.10;;;;;;5088418;28;19912;-83
2022/10/25 13:53:37;;;;;;;;;;;19.00;72.10;;;;;;5110916;27;19920;-83
2022/10/25 13:56:07;;;;;;;;;;;19.00;72.10;;;;;;5104904;27;19923;-83
2022/10/25 13:58:38;;;;;;;;;;;19.00;72.10;;;;;;5109956;27;19912;-82
2022/10/25 14:01:13;;;;;;;;;;;19.00;72.10;;;;;;5096046;28;19912;-83
2022/10/25 14:03:53;;;;;;;;;;;19.00;72.10;;;;;;5095877;28;19915;-83
2022/10/25 14:06:25;;;;;;;;;;;19.00;72.00;;;;;;5101072;28;19964;-84
2022/10/25 14:08:53;;;;;;;;;;;19.10;72.10;;;;;;5090031;28;19908;-82
2022/10/25 14:11:30;;;;;;;;;;;19.10;72.10;;;;;;5089466;28;19912;-83
2022/10/25 14:14:15;;;;;;;;;;;19.10;72.00;;;;;;5079904;28;19912;-82
2022/10/25 14:16:45;;;;;;;;;;;19.10;72.00;;;;;;5103680;28;19915;-82
2022/10/25 14:19:14;;;;;;;;;;;19.10;72.00;;;;;;5115789;27;20643;-83
2022/10/25 14:21:44;;;;;;;;;;;19.10;72.00;;;;;;5101439;28;20790;-83
2022/10/25 14:24:12;;;;;;;;;;;19.10;72.00;;;;;;5095168;28;19912;-83
2022/10/25 14:26:47;;;;;;;;;;;19.10;71.90;;;;;;5093326;28;19916;-83
2022/10/25 14:29:13;;;;;;;;;;;19.20;71.90;;;;;;5087026;28;19920;-82